Time;durP1;ratioP1;P1;durP2;ratioP2;P2;SDS_P1;SDS_P2;PMS_P1;PMS_P2;Temp;Humidity;BMP_temperature;BMP_pressure;BME280_temperature;BME280_humidity;BME280_pressure;Samples;Min_cycle;Max_cycle;Signal;HPM_P1;HPM_P2
2023/05/27 00:01:27;;;;;;;1.77;1.40;;;22.40;81.20;;;;;;5096817;28;20435;-89
2023/05/27 00:03:54;;;;;;;2.13;1.27;;;22.40;81.20;;;;;;5097033;28;20435;-89
2023/05/27 00:06:21;;;;;;;2.07;1.77;;;22.40;81.10;;;;;;5097210;28;20436;-89
2023/05/27 00:08:48;;;;;;;1.73;1.57;;;22.40;81.10;;;;;;5096834;28;20554;-89
2023/05/27 00:11:16;;;;;;;1.77;1.10;;;22.40;81.00;;;;;;5097046;28;20443;-89
2023/05/27 00:13:43;;;;;;;1.63;1.53;;;22.30;81.00;;;;;;5096694;28;20484;-89
2023/05/27 00:16:11;;;;;;;1.57;1.20;;;22.40;81.40;;;;;;5097131;28;20439;-89
2023/05/27 00:18:37;;;;;;;1.67;1.57;;;22.40;81.20;;;;;;5096868;28;20500;-89
2023/05/27 00:21:05;;;;;;;2.40;1.60;;;22.30;81.00;;;;;;5096876;28;21027;-88
2023/05/27 00:23:31;;;;;;;1.90;1.50;;;22.30;80.90;;;;;;5096790;28;20439;-89
2023/05/27 00:25:58;;;;;;;2.00;1.50;;;22.30;80.90;;;;;;5096468;28;20925;-89
2023/05/27 00:28:28;;;;;;;1.77;1.53;;;22.40;81.40;;;;;;5096897;28;20437;-89
2023/05/27 00:30:55;;;;;;;2.17;1.40;;;22.30;81.10;;;;;;5096792;28;20941;-89
2023/05/27 00:33:22;;;;;;;2.60;1.40;;;22.30;82.10;;;;;;5096579;28;20442;-89
2023/05/27 00:35:49;;;;;;;2.83;1.33;;;22.30;80.90;;;;;;5096665;28;20467;-89
2023/05/27 00:38:16;;;;;;;2.27;1.53;;;22.40;81.60;;;;;;5096454;28;20909;-89
2023/05/27 00:40:44;;;;;;;2.20;2.00;;;22.30;81.30;;;;;;5096145;28;20455;-89
2023/05/27 00:43:10;;;;;;;1.80;1.70;;;22.30;81.40;;;;;;5096519;28;20446;-89
2023/05/27 00:45:39;;;;;;;1.97;1.70;;;22.30;81.50;;;;;;5096535;28;20446;-89
2023/05/27 00:48:06;;;;;;;1.60;1.40;;;22.30;81.30;;;;;;5096356;28;20934;-89
2023/05/27 00:50:33;;;;;;;1.40;1.23;;;22.30;81.60;;;;;;5096223;28;20985;-89
2023/05/27 00:53:00;;;;;;;2.27;1.30;;;22.30;81.10;;;;;;5096162;28;20798;-89
2023/05/27 00:55:27;;;;;;;1.20;1.10;;;22.30;81.30;;;;;;5095939;28;20442;-88
2023/05/27 00:57:54;;;;;;;1.50;1.30;;;22.30;81.30;;;;;;5096053;28;20435;-89
2023/05/27 01:00:21;;;;;;;1.90;1.60;;;22.30;81.30;;;;;;5096007;28;20451;-88
2023/05/27 01:02:50;;;;;;;1.40;1.23;;;22.30;81.30;;;;;;5095929;28;20471;-89
2023/05/27 01:05:19;;;;;;;2.50;1.60;;;22.30;81.20;;;;;;5095998;28;20450;-89
2023/05/27 01:07:58;;;;;;;1.50;1.37;;;22.30;81.20;;;;;;5096112;28;20438;-89
2023/05/27 01:10:32;;;;;;;1.50;1.40;;;22.30;81.10;;;;;;5095857;28;20463;-89
2023/05/27 01:13:01;;;;;;;2.70;1.27;;;22.30;81.20;;;;;;5095730;28;20458;-88
2023/05/27 01:15:30;;;;;;;1.47;1.37;;;22.30;81.20;;;;;;5095842;28;20488;-89
2023/05/27 01:18:02;;;;;;;1.63;1.10;;;22.40;81.40;;;;;;5095771;28;20522;-89
2023/05/27 01:20:30;;;;;;;1.60;1.30;;;22.30;81.30;;;;;;5095958;28;20436;-89
2023/05/27 01:22:59;;;;;;;1.60;1.50;;;22.30;81.50;;;;;;5095754;28;20442;-89
2023/05/27 01:25:26;;;;;;;1.77;1.43;;;22.40;81.40;;;;;;5095527;28;20783;-89
2023/05/27 01:27:56;;;;;;;1.60;1.50;;;22.30;81.50;;;;;;5095765;28;20521;-89
2023/05/27 01:30:23;;;;;;;1.40;1.30;;;22.30;81.60;;;;;;5095943;28;20454;-89
2023/05/27 01:32:53;;;;;;;1.50;1.40;;;22.30;81.30;;;;;;5095199;28;20530;-89
2023/05/27 01:35:25;;;;;;;2.00;1.50;;;22.30;81.30;;;;;;5095721;28;20794;-88
2023/05/27 01:37:53;;;;;;;1.50;1.40;;;22.30;81.40;;;;;;5095464;28;20465;-89
2023/05/27 01:40:23;;;;;;;1.70;1.53;;;22.30;80.90;;;;;;5095212;28;20491;-88
2023/05/27 01:42:50;;;;;;;1.63;1.37;;;22.30;81.50;;;;;;5095377;28;20439;-88
2023/05/27 01:45:17;;;;;;;3.03;1.17;;;22.30;81.40;;;;;;5095084;28;20446;-89
2023/05/27 01:47:44;;;;;;;1.63;1.53;;;22.30;81.70;;;;;;5095270;28;20435;-89
2023/05/27 01:50:11;;;;;;;1.50;1.30;;;22.30;81.40;;;;;;5094991;28;20440;-89
2023/05/27 01:52:38;;;;;;;2.40;1.67;;;22.30;81.50;;;;;;5095263;28;20462;-89
2023/05/27 01:55:06;;;;;;;1.53;1.33;;;22.30;81.50;;;;;;5094891;28;20470;-88
2023/05/27 01:57:45;;;;;;;1.90;1.80;;;22.30;81.30;;;;;;5094849;28;20520;-88
2023/05/27 02:00:13;;;;;;;2.50;1.63;;;22.30;81.30;;;;;;5094880;28;20856;-89
2023/05/27 02:02:40;;;;;;;1.30;1.13;;;22.30;81.90;;;;;;5095015;28;20439;-89
2023/05/27 02:05:07;;;;;;;1.53;1.10;;;22.30;81.90;;;;;;5094881;28;20462;-88
2023/05/27 02:07:34;;;;;;;1.83;1.27;;;22.30;81.50;;;;;;5094556;28;20908;-89
2023/05/27 02:10:01;;;;;;;1.50;1.20;;;22.30;81.60;;;;;;5094526;28;20829;-88
2023/05/27 02:12:28;;;;;;;1.60;1.30;;;22.30;81.70;;;;;;5094640;28;20566;-88
2023/05/27 02:14:56;;;;;;;1.70;1.50;;;22.30;82.00;;;;;;5094664;28;20793;-88
2023/05/27 02:17:24;;;;;;;2.63;1.33;;;22.30;81.80;;;;;;5094612;28;20463;-89
2023/05/27 02:19:51;;;;;;;2.00;1.47;;;22.30;82.00;;;;;;5094332;28;20490;-88
2023/05/27 02:22:17;;;;;;;1.70;1.60;;;22.30;81.60;;;;;;5094356;28;20466;-88
2023/05/27 02:24:44;;;;;;;1.37;1.17;;;22.30;81.50;;;;;;5094397;28;20448;-88
2023/05/27 02:27:12;;;;;;;1.70;1.20;;;22.30;81.70;;;;;;5094314;28;20534;-88
2023/05/27 02:29:39;;;;;;;1.93;1.60;;;22.30;81.70;;;;;;5094605;28;20444;-88
2023/05/27 02:32:07;;;;;;;1.67;1.20;;;22.30;81.90;;;;;;5094477;28;20982;-88
2023/05/27 02:34:36;;;;;;;2.37;1.63;;;22.30;82.00;;;;;;5094288;28;20497;-89
2023/05/27 02:37:04;;;;;;;1.63;1.43;;;22.30;81.80;;;;;;5094261;28;20910;-88
2023/05/27 02:39:31;;;;;;;1.67;1.40;;;22.30;81.80;;;;;;5093921;28;20891;-89
2023/05/27 02:41:57;;;;;;;1.80;1.30;;;22.30;81.60;;;;;;5094216;28;21026;-89
2023/05/27 02:44:24;;;;;;;1.80;1.47;;;22.30;82.40;;;;;;5093955;28;20990;-89
2023/05/27 02:46:51;;;;;;;1.43;1.23;;;22.20;81.80;;;;;;5094370;28;20791;-88
2023/05/27 02:49:19;;;;;;;2.10;1.63;;;22.20;81.60;;;;;;5093478;28;20439;-88
2023/05/27 02:51:46;;;;;;;2.47;1.30;;;22.20;82.10;;;;;;5093840;28;20490;-89
2023/05/27 02:54:13;;;;;;;2.80;1.73;;;22.30;82.00;;;;;;5093853;28;20538;-89
2023/05/27 02:56:40;;;;;;;2.33;1.70;;;22.20;81.90;;;;;;5093872;28;20542;-88
2023/05/27 02:59:07;;;;;;;1.90;1.43;;;22.20;82.30;;;;;;5093754;28;20475;-89
2023/05/27 03:01:33;;;;;;;1.83;1.30;;;22.20;81.90;;;;;;5093943;28;20447;-89
2023/05/27 03:04:00;;;;;;;2.17;1.10;;;22.20;82.20;;;;;;5093684;28;20529;-89
2023/05/27 03:06:28;;;;;;;1.73;1.20;;;22.20;82.20;;;;;;5093894;28;20507;-89
2023/05/27 03:08:55;;;;;;;1.43;1.33;;;22.20;82.00;;;;;;5093567;28;20551;-89
2023/05/27 03:11:22;;;;;;;2.37;1.10;;;22.20;81.60;;;;;;5093359;28;20530;-89
2023/05/27 03:13:49;;;;;;;1.70;1.57;;;22.20;81.90;;;;;;5093579;28;20461;-88
2023/05/27 03:16:16;;;;;;;1.50;1.10;;;22.20;81.90;;;;;;5093543;28;20530;-89
2023/05/27 03:18:42;;;;;;;1.43;1.30;;;22.20;82.10;;;;;;5093218;28;20435;-89
2023/05/27 03:21:09;;;;;;;1.60;1.43;;;22.20;82.00;;;;;;5093535;28;20440;-89
2023/05/27 03:23:37;;;;;;;1.43;1.30;;;22.20;82.20;;;;;;5093355;28;20495;-89
2023/05/27 03:26:04;;;;;;;1.60;1.10;;;22.20;82.20;;;;;;5093392;28;20439;-88
2023/05/27 03:28:31;;;;;;;1.53;1.37;;;22.20;82.10;;;;;;5092852;28;20447;-88
2023/05/27 03:30:58;;;;;;;1.90;1.60;;;22.20;82.20;;;;;;5093258;28;20447;-89
2023/05/27 03:33:25;;;;;;;1.77;1.33;;;22.20;82.20;;;;;;5093326;28;20432;-89
2023/05/27 03:35:52;;;;;;;2.27;1.40;;;22.20;82.10;;;;;;5093354;28;20449;-89
2023/05/27 03:38:20;;;;;;;1.70;1.20;;;22.20;82.00;;;;;;5093147;28;20436;-89
2023/05/27 03:40:48;;;;;;;1.40;1.20;;;22.20;81.70;;;;;;5093158;28;20493;-89
2023/05/27 03:43:15;;;;;;;1.37;1.27;;;22.20;82.20;;;;;;5093268;28;20538;-89
2023/05/27 03:45:42;;;;;;;1.90;1.50;;;22.20;82.70;;;;;;5093021;28;20538;-89
2023/05/27 03:48:08;;;;;;;2.03;1.60;;;22.20;81.90;;;;;;5093258;28;20520;-88
2023/05/27 03:50:35;;;;;;;1.40;1.30;;;22.10;81.70;;;;;;5093083;28;20530;-90
2023/05/27 03:53:02;;;;;;;1.50;1.40;;;22.20;81.90;;;;;;5093006;28;20453;-89
2023/05/27 03:55:30;;;;;;;2.30;1.80;;;22.20;82.00;;;;;;5093202;28;20501;-89
2023/05/27 03:57:58;;;;;;;3.10;1.63;;;22.10;81.90;;;;;;5093257;28;20443;-88
2023/05/27 04:00:25;;;;;;;1.83;1.50;;;22.10;81.90;;;;;;5092914;28;20530;-88
2023/05/27 04:02:52;;;;;;;1.70;1.27;;;22.10;81.90;;;;;;5092969;28;20530;-89
2023/05/27 04:05:18;;;;;;;1.60;1.33;;;22.10;81.70;;;;;;5093101;28;20555;-89
2023/05/27 04:07:45;;;;;;;1.50;1.30;;;22.10;81.90;;;;;;5092927;28;20539;-88
2023/05/27 04:10:12;;;;;;;2.00;1.40;;;22.10;81.80;;;;;;5093015;28;20458;-89
2023/05/27 04:12:40;;;;;;;1.80;1.40;;;22.20;82.20;;;;;;5092319;28;20478;-89
2023/05/27 04:15:09;;;;;;;1.67;1.57;;;22.10;82.70;;;;;;5092924;28;20447;-88
2023/05/27 04:17:36;;;;;;;1.60;1.50;;;22.10;81.70;;;;;;5092883;28;20535;-89
2023/05/27 04:20:13;;;;;;;1.53;1.43;;;22.10;81.70;;;;;;5092698;28;21007;-88
2023/05/27 04:22:40;;;;;;;1.47;1.37;;;22.10;81.80;;;;;;5092916;28;20454;-89
2023/05/27 04:25:08;;;;;;;1.67;1.20;;;22.10;81.70;;;;;;5092680;28;20451;-88
2023/05/27 04:27:34;;;;;;;1.70;1.40;;;22.10;81.70;;;;;;5092857;28;20526;-89
2023/05/27 04:30:02;;;;;;;1.47;1.30;;;22.10;81.70;;;;;;5092816;28;20871;-89
2023/05/27 04:32:32;;;;;;;1.83;1.40;;;22.10;81.50;;;;;;5092916;28;20439;-89
2023/05/27 04:34:59;;;;;;;1.70;1.50;;;22.10;81.40;;;;;;5092361;28;20452;-89
2023/05/27 04:37:28;;;;;;;1.67;1.30;;;22.10;81.30;;;;;;5092754;28;20934;-88
2023/05/27 04:39:56;;;;;;;1.53;1.27;;;22.10;81.30;;;;;;5092850;28;21099;-89
2023/05/27 04:42:24;;;;;;;1.90;1.40;;;22.10;81.40;;;;;;5096442;28;20442;-88
2023/05/27 04:44:51;;;;;;;1.70;1.30;;;22.10;81.00;;;;;;5096406;28;20442;-89
2023/05/27 04:47:18;;;;;;;2.50;1.30;;;22.10;81.10;;;;;;5096440;28;20442;-89
2023/05/27 04:49:46;;;;;;;1.50;1.40;;;22.10;80.80;;;;;;5096466;28;20450;-89
2023/05/27 04:52:13;;;;;;;1.60;1.40;;;22.10;81.20;;;;;;5096199;28;20441;-89
2023/05/27 04:54:40;;;;;;;1.50;1.40;;;22.10;80.70;;;;;;5096390;28;20474;-89
2023/05/27 04:57:07;;;;;;;1.60;1.43;;;22.10;80.30;;;;;;5096385;28;20439;-88
2023/05/27 04:59:46;;;;;;;1.73;1.47;;;22.10;80.50;;;;;;5095907;28;20475;-89
2023/05/27 05:02:21;;;;;;;1.60;1.40;;;22.10;80.20;;;;;;5096172;28;20493;-88
2023/05/27 05:04:50;;;;;;;1.57;1.30;;;22.10;80.30;;;;;;5095201;28;20531;-88
2023/05/27 05:07:19;;;;;;;1.77;1.40;;;22.10;80.30;;;;;;5096230;28;20842;-89
2023/05/27 05:09:46;;;;;;;1.60;1.50;;;22.10;80.00;;;;;;5095924;28;20477;-88
2023/05/27 05:12:12;;;;;;;1.80;1.40;;;22.10;80.10;;;;;;5095535;28;20482;-89
2023/05/27 05:14:39;;;;;;;1.90;1.33;;;22.10;80.10;;;;;;5095797;28;20444;-88
2023/05/27 05:17:06;;;;;;;1.70;1.40;;;22.10;80.10;;;;;;5095911;28;20954;-88
2023/05/27 05:19:33;;;;;;;1.50;1.20;;;22.10;80.20;;;;;;5096166;28;20530;-88
2023/05/27 05:22:01;;;;;;;1.47;1.37;;;22.10;80.10;;;;;;5095870;28;20448;-89
2023/05/27 05:24:28;;;;;;;2.37;1.73;;;22.10;80.20;;;;;;5095549;28;20523;-89
2023/05/27 05:26:55;;;;;;;1.63;1.50;;;22.10;80.00;;;;;;5095713;28;20530;-89
2023/05/27 05:29:22;;;;;;;2.17;1.40;;;22.10;79.70;;;;;;5095721;28;20438;-89
2023/05/27 05:31:49;;;;;;;1.40;1.30;;;22.10;80.00;;;;;;5095542;28;20443;-88
2023/05/27 05:34:15;;;;;;;2.07;1.20;;;22.10;80.00;;;;;;5095707;28;20503;-88
2023/05/27 05:36:42;;;;;;;1.60;1.40;;;22.10;79.90;;;;;;5095652;28;20533;-89
2023/05/27 05:39:10;;;;;;;1.90;1.70;;;22.10;80.00;;;;;;5095329;28;20466;-89
2023/05/27 05:41:37;;;;;;;1.80;1.30;;;22.10;79.90;;;;;;5095451;28;20483;-89
2023/05/27 05:44:04;;;;;;;1.60;1.50;;;22.10;79.80;;;;;;5095513;28;20475;-89
2023/05/27 05:46:31;;;;;;;1.57;1.13;;;22.10;80.00;;;;;;5095420;28;20782;-89
2023/05/27 05:48:58;;;;;;;1.50;1.10;;;22.10;79.80;;;;;;5095417;28;20434;-88
2023/05/27 05:51:25;;;;;;;2.13;1.53;;;22.10;79.80;;;;;;5094589;28;20465;-89
2023/05/27 05:53:52;;;;;;;1.50;1.20;;;22.10;79.90;;;;;;5094879;28;20516;-89
2023/05/27 05:56:21;;;;;;;1.60;1.33;;;22.10;80.00;;;;;;5095159;28;20441;-89
2023/05/27 05:58:48;;;;;;;1.63;1.53;;;22.10;80.10;;;;;;5094961;28;20500;-89
2023/05/27 06:01:16;;;;;;;1.50;1.33;;;22.10;79.80;;;;;;5095035;28;20479;-90
2023/05/27 06:03:42;;;;;;;1.77;1.47;;;22.10;79.70;;;;;;5094963;28;20526;-88
2023/05/27 06:06:09;;;;;;;2.27;1.70;;;22.10;79.90;;;;;;5093639;28;20951;-83
2023/05/27 06:08:36;;;;;;;1.50;1.33;;;22.10;80.00;;;;;;5094629;28;20464;-84
2023/05/27 06:11:03;;;;;;;1.60;1.37;;;22.10;79.90;;;;;;5093913;28;20454;-87
2023/05/27 06:13:31;;;;;;;1.60;1.40;;;22.10;80.10;;;;;;5094127;28;20982;-84
2023/05/27 06:15:58;;;;;;;2.37;1.70;;;22.10;80.30;;;;;;5094659;28;20434;-83
2023/05/27 06:18:25;;;;;;;1.60;1.50;;;22.10;80.80;;;;;;5093722;28;20960;-84
2023/05/27 06:20:52;;;;;;;3.70;1.47;;;22.10;80.90;;;;;;5094294;28;21005;-86
2023/05/27 06:23:19;;;;;;;1.97;1.70;;;22.10;80.90;;;;;;5086229;28;20451;-84
2023/05/27 06:25:46;;;;;;;3.70;2.17;;;22.10;80.70;;;;;;5094171;28;20500;-84
2023/05/27 06:28:13;;;;;;;3.90;1.70;;;22.00;80.30;;;;;;5093666;28;20440;-84
2023/05/27 06:30:42;;;;;;;2.63;1.40;;;22.00;80.50;;;;;;5094123;28;20440;-87
2023/05/27 06:33:09;;;;;;;3.60;2.83;;;22.10;81.00;;;;;;5094365;28;20451;-87
2023/05/27 06:35:36;;;;;;;9.40;3.10;;;22.10;80.30;;;;;;5094400;28;20443;-86
2023/05/27 06:38:03;;;;;;;15.10;4.67;;;22.10;78.90;;;;;;5094051;28;20442;-87
2023/05/27 06:40:29;;;;;;;10.17;4.70;;;22.00;77.80;;;;;;5093292;28;20478;-87
2023/05/27 06:42:56;;;;;;;10.23;4.57;;;21.90;78.60;;;;;;5093675;28;20815;-86
2023/05/27 06:45:23;;;;;;;8.47;4.60;;;21.70;78.10;;;;;;5093942;28;20442;-88
2023/05/27 06:47:51;;;;;;;9.10;4.70;;;21.60;78.50;;;;;;5093586;28;20444;-88
2023/05/27 06:50:18;;;;;;;12.00;5.80;;;21.60;78.60;;;;;;5094527;28;20454;-86
2023/05/27 06:52:45;;;;;;;9.70;5.10;;;21.50;78.70;;;;;;5094086;28;20963;-85
2023/05/27 06:55:12;;;;;;;10.17;4.43;;;21.50;79.30;;;;;;5093651;28;20450;-84
2023/05/27 06:57:40;;;;;;;8.90;4.73;;;21.40;79.50;;;;;;5093541;28;20438;-86
2023/05/27 07:00:09;;;;;;;9.00;4.23;;;21.40;79.40;;;;;;5092898;28;20542;-84
2023/05/27 07:02:36;;;;;;;9.93;3.90;;;21.40;79.30;;;;;;5093092;28;20438;-88
2023/05/27 07:05:05;;;;;;;15.17;4.23;;;21.30;79.50;;;;;;5093601;28;20976;-87
2023/05/27 07:07:32;;;;;;;8.87;4.40;;;21.40;79.50;;;;;;5093383;28;20453;-88
2023/05/27 07:09:59;;;;;;;13.23;4.10;;;21.30;79.30;;;;;;5092022;28;20473;-87
2023/05/27 07:12:25;;;;;;;12.63;5.83;;;21.30;79.40;;;;;;5093046;28;20475;-88
2023/05/27 07:14:52;;;;;;;11.80;4.87;;;21.30;79.80;;;;;;5093216;28;20451;-87
2023/05/27 07:17:19;;;;;;;14.93;5.07;;;21.50;79.40;;;;;;5093229;28;20438;-87
2023/05/27 07:19:46;;;;;;;8.53;4.50;;;21.30;79.80;;;;;;5092921;28;20453;-88
2023/05/27 07:22:14;;;;;;;9.43;4.67;;;21.40;79.80;;;;;;5092982;28;21006;-88
2023/05/27 07:24:41;;;;;;;14.07;5.67;;;21.50;80.00;;;;;;5093405;28;20536;-88
2023/05/27 07:27:07;;;;;;;8.27;5.03;;;21.40;79.50;;;;;;5092938;28;20437;-87
2023/05/27 07:29:34;;;;;;;12.20;4.30;;;21.60;80.30;;;;;;5093481;28;20444;-88
2023/05/27 07:32:01;;;;;;;11.23;4.33;;;21.50;80.30;;;;;;5093393;28;20450;-87
2023/05/27 07:34:28;;;;;;;15.53;5.47;;;21.50;80.00;;;;;;5093261;28;20446;-87
2023/05/27 07:36:56;;;;;;;11.47;5.00;;;21.50;79.90;;;;;;5093690;28;20439;-88
2023/05/27 07:39:24;;;;;;;9.37;4.50;;;21.60;80.00;;;;;;5093925;28;20487;-88
2023/05/27 07:41:51;;;;;;;11.47;4.73;;;21.50;79.90;;;;;;5093775;28;21080;-86
2023/05/27 07:44:18;;;;;;;9.27;4.97;;;21.50;80.20;;;;;;5092838;28;20445;-87
2023/05/27 07:46:45;;;;;;;10.10;4.33;;;21.60;80.50;;;;;;5093537;28;20439;-87
2023/05/27 07:49:14;;;;;;;12.10;5.27;;;21.70;80.60;;;;;;5092757;28;20434;-86
2023/05/27 07:51:40;;;;;;;9.53;5.00;;;21.60;80.30;;;;;;5093107;28;20452;-87
2023/05/27 07:54:07;;;;;;;10.50;4.83;;;21.70;80.20;;;;;;5093057;28;20455;-86
2023/05/27 07:56:35;;;;;;;9.67;4.43;;;21.70;80.00;;;;;;5093379;28;20949;-87
2023/05/27 07:59:02;;;;;;;13.47;4.73;;;21.70;80.10;;;;;;5093244;28;20436;-87
2023/05/27 08:01:32;;;;;;;12.23;3.33;;;21.70;79.90;;;;;;5092537;28;20974;-85
2023/05/27 08:03:59;;;;;;;9.03;3.50;;;21.70;80.60;;;;;;5092886;28;20843;-82
2023/05/27 08:06:25;;;;;;;8.37;3.90;;;21.70;80.70;;;;;;5092293;28;20435;-83
2023/05/27 08:08:52;;;;;;;4.67;3.33;;;21.80;80.80;;;;;;5092749;28;20463;-82
2023/05/27 08:11:20;;;;;;;8.07;3.87;;;21.80;81.20;;;;;;5092406;28;20433;-82
2023/05/27 08:13:48;;;;;;;6.80;3.40;;;21.80;80.90;;;;;;5092101;28;20526;-84
2023/05/27 08:16:14;;;;;;;7.67;3.50;;;21.80;80.90;;;;;;5095329;28;20446;-82
2023/05/27 08:18:41;;;;;;;7.10;3.20;;;21.90;81.00;;;;;;5096456;28;20442;-83
2023/05/27 08:21:08;;;;;;;10.47;3.60;;;21.90;80.80;;;;;;5096121;28;20482;-84
2023/05/27 08:23:35;;;;;;;7.57;3.47;;;21.90;80.60;;;;;;5096629;28;20452;-84
2023/05/27 08:26:01;;;;;;;5.67;3.23;;;22.00;81.00;;;;;;5094589;28;20476;-84
2023/05/27 08:28:28;;;;;;;8.33;3.77;;;22.10;81.00;;;;;;5094582;28;20817;-83
2023/05/27 08:30:56;;;;;;;7.50;2.60;;;22.10;80.80;;;;;;5094426;28;20854;-84
2023/05/27 08:33:23;;;;;;;5.40;2.90;;;22.20;81.50;;;;;;5094303;28;20446;-83
2023/05/27 08:35:50;;;;;;;8.20;3.77;;;22.20;81.30;;;;;;5093565;28;20447;-83
2023/05/27 08:38:17;;;;;;;5.63;2.90;;;22.30;81.00;;;;;;5094302;28;20455;-83
2023/05/27 08:40:45;;;;;;;6.20;2.93;;;22.40;81.00;;;;;;5094740;28;20474;-83
2023/05/27 08:43:12;;;;;;;5.17;2.93;;;22.40;80.80;;;;;;5094922;28;20439;-83
2023/05/27 08:45:40;;;;;;;5.50;3.10;;;22.60;81.40;;;;;;5096054;28;20445;-83
2023/05/27 08:48:10;;;;;;;10.60;3.20;;;22.50;81.30;;;;;;5096363;28;20446;-83
2023/05/27 08:50:37;;;;;;;7.00;3.50;;;22.50;81.50;;;;;;5096180;28;20443;-83
2023/05/27 08:53:04;;;;;;;5.20;2.77;;;22.50;81.40;;;;;;5096214;28;20442;-83
2023/05/27 08:55:33;;;;;;;4.00;3.00;;;22.70;81.50;;;;;;5096107;28;20438;-83
2023/05/27 08:58:02;;;;;;;3.57;2.73;;;22.60;81.40;;;;;;5096048;28;20440;-83
2023/05/27 09:00:29;;;;;;;12.20;4.10;;;22.60;81.50;;;;;;5096035;28;20435;-84
2023/05/27 09:02:59;;;;;;;6.07;3.10;;;22.60;81.50;;;;;;5096136;28;20797;-83
2023/05/27 09:05:27;;;;;;;4.90;2.80;;;22.60;81.60;;;;;;5096095;28;20472;-83
2023/05/27 09:07:55;;;;;;;4.20;3.20;;;22.70;81.40;;;;;;5095967;28;20793;-83
2023/05/27 09:10:22;;;;;;;4.10;2.60;;;22.70;81.70;;;;;;5096079;28;20490;-83
2023/05/27 09:12:50;;;;;;;8.33;3.20;;;22.70;81.70;;;;;;5095494;28;20478;-83
2023/05/27 09:15:17;;;;;;;3.70;2.60;;;22.80;81.60;;;;;;5095826;28;20435;-84
2023/05/27 09:17:45;;;;;;;4.07;2.70;;;22.80;81.90;;;;;;5095569;28;20452;-83
2023/05/27 09:20:13;;;;;;;4.93;2.57;;;23.00;82.10;;;;;;5095788;28;20950;-83
2023/05/27 09:22:42;;;;;;;4.80;3.07;;;22.80;81.90;;;;;;5095469;28;20490;-83
2023/05/27 09:25:09;;;;;;;4.93;3.20;;;22.90;82.00;;;;;;5095711;28;20493;-83
2023/05/27 09:27:36;;;;;;;3.93;2.83;;;22.90;82.00;;;;;;5094187;28;20447;-83
2023/05/27 09:30:11;;;;;;;4.13;2.93;;;22.90;82.10;;;;;;5095408;28;20950;-83
2023/05/27 09:32:38;;;;;;;6.30;3.00;;;23.00;82.00;;;;;;5095410;28;20449;-83
2023/05/27 09:35:08;;;;;;;5.57;2.63;;;23.00;81.90;;;;;;5095586;28;20446;-83
2023/05/27 09:37:35;;;;;;;5.07;2.60;;;23.00;82.10;;;;;;5095372;28;20952;-83
2023/05/27 09:40:08;;;;;;;4.60;2.53;;;23.00;82.10;;;;;;5095337;28;20500;-83
2023/05/27 09:42:45;;;;;;;4.30;2.40;;;23.10;81.90;;;;;;5095368;28;21037;-83
2023/05/27 09:45:13;;;;;;;3.60;2.60;;;23.10;82.20;;;;;;5095615;28;20919;-83
2023/05/27 09:47:42;;;;;;;2.40;2.13;;;23.10;82.20;;;;;;5095231;28;20444;-83
2023/05/27 09:50:09;;;;;;;4.60;2.97;;;23.10;81.90;;;;;;5095255;28;20448;-83
2023/05/27 09:52:39;;;;;;;4.07;2.77;;;23.20;82.40;;;;;;5095183;28;20503;-84
2023/05/27 09:55:11;;;;;;;4.90;2.77;;;23.20;82.30;;;;;;5095126;28;20574;-84
2023/05/27 09:57:37;;;;;;;5.33;3.10;;;23.20;82.50;;;;;;5094975;28;20509;-83
2023/05/27 10:00:11;;;;;;;4.60;2.70;;;23.20;82.40;;;;;;5094950;28;20437;-86
2023/05/27 10:02:38;;;;;;;4.73;2.60;;;23.30;82.40;;;;;;5094796;28;20480;-83
2023/05/27 10:05:08;;;;;;;5.80;2.80;;;23.50;82.50;;;;;;5094571;28;20439;-83
2023/05/27 10:07:37;;;;;;;5.73;3.70;;;23.30;82.30;;;;;;5094768;28;20436;-83
2023/05/27 10:10:08;;;;;;;3.53;2.60;;;23.30;82.40;;;;;;5094891;28;20436;-84
2023/05/27 10:12:36;;;;;;;3.07;2.50;;;23.40;82.60;;;;;;5094418;28;20472;-84
2023/05/27 10:15:03;;;;;;;4.07;2.23;;;23.40;82.50;;;;;;5094730;28;20436;-83
2023/05/27 10:17:41;;;;;;;4.27;2.80;;;23.40;82.30;;;;;;5094634;28;20453;-84
2023/05/27 10:20:09;;;;;;;5.33;2.80;;;23.50;82.40;;;;;;5094807;28;20436;-83
2023/05/27 10:22:40;;;;;;;5.63;3.00;;;23.50;82.20;;;;;;5094359;28;20562;-83
2023/05/27 10:25:14;;;;;;;4.87;2.57;;;23.50;82.30;;;;;;5094683;28;20924;-84
2023/05/27 10:27:45;;;;;;;3.97;2.57;;;23.50;82.40;;;;;;5094413;28;20449;-83
2023/05/27 10:30:14;;;;;;;3.30;2.53;;;23.60;82.30;;;;;;5094433;28;20439;-83
2023/05/27 10:32:45;;;;;;;2.90;2.20;;;23.60;82.30;;;;;;5094323;28;20497;-83
2023/05/27 10:35:12;;;;;;;2.77;1.97;;;23.80;82.70;;;;;;5094368;28;20476;-83
2023/05/27 10:37:42;;;;;;;3.00;2.50;;;23.60;82.10;;;;;;5093831;28;20432;-83
2023/05/27 10:40:10;;;;;;;6.00;3.13;;;23.70;82.60;;;;;;5094256;28;20934;-83
2023/05/27 10:42:38;;;;;;;3.13;2.40;;;23.60;82.30;;;;;;5094094;28;20854;-83
2023/05/27 10:45:07;;;;;;;3.67;2.03;;;23.60;82.30;;;;;;5094172;28;20439;-83
2023/05/27 10:47:37;;;;;;;4.57;2.50;;;23.70;82.20;;;;;;5094151;28;20436;-83
2023/05/27 10:50:14;;;;;;;3.77;2.80;;;23.70;82.30;;;;;;5094147;28;20452;-84
2023/05/27 10:52:42;;;;;;;4.77;2.50;;;23.70;82.40;;;;;;5094103;28;20501;-83
2023/05/27 10:55:09;;;;;;;3.67;2.30;;;23.70;82.30;;;;;;5093945;28;20592;-83
2023/05/27 10:57:38;;;;;;;2.30;2.00;;;23.80;82.40;;;;;;5093750;28;20486;-83
2023/05/27 11:00:08;;;;;;;2.40;1.93;;;23.80;82.40;;;;;;5093964;28;20547;-84
2023/05/27 11:02:37;;;;;;;4.17;2.63;;;23.80;82.30;;;;;;5093845;28;20521;-83
2023/05/27 11:05:11;;;;;;;3.80;2.20;;;23.80;82.10;;;;;;5093641;28;20458;-83
2023/05/27 11:07:39;;;;;;;2.90;2.00;;;23.80;82.30;;;;;;5093681;28;20442;-83
2023/05/27 11:10:07;;;;;;;2.77;2.47;;;23.80;82.20;;;;;;5093752;28;20446;-84
2023/05/27 11:12:34;;;;;;;2.97;2.67;;;23.80;82.30;;;;;;5093328;28;20849;-83
2023/05/27 11:15:03;;;;;;;2.63;2.00;;;23.80;82.20;;;;;;5093615;28;20856;-83
2023/05/27 11:17:30;;;;;;;2.53;1.87;;;23.90;82.30;;;;;;5093713;28;20817;-83
2023/05/27 11:19:58;;;;;;;2.57;2.07;;;23.90;82.40;;;;;;5093320;28;20858;-83
2023/05/27 11:22:25;;;;;;;2.07;1.67;;;23.90;82.30;;;;;;5093366;28;20495;-83
2023/05/27 11:24:59;;;;;;;4.17;2.53;;;23.90;82.30;;;;;;5093449;28;20447;-83
2023/05/27 11:27:33;;;;;;;2.60;1.73;;;24.00;82.50;;;;;;5093440;28;20524;-83
2023/05/27 11:30:03;;;;;;;2.57;2.03;;;24.00;82.50;;;;;;5093419;28;20437;-84
2023/05/27 11:32:35;;;;;;;4.10;2.43;;;24.00;82.60;;;;;;5093432;28;20447;-83
2023/05/27 11:35:02;;;;;;;2.17;1.70;;;23.90;82.30;;;;;;5093392;28;20437;-84
2023/05/27 11:37:32;;;;;;;3.10;2.13;;;24.00;82.30;;;;;;5093468;28;20445;-83
2023/05/27 11:39:59;;;;;;;2.17;1.97;;;24.00;82.40;;;;;;5093435;28;20566;-83
2023/05/27 11:42:26;;;;;;;3.30;2.17;;;24.00;82.40;;;;;;5093179;28;20497;-84
2023/05/27 11:44:54;;;;;;;2.20;2.00;;;24.00;82.60;;;;;;5093232;28;20441;-83
2023/05/27 11:47:21;;;;;;;1.83;1.70;;;24.00;82.60;;;;;;5093233;28;20484;-83
2023/05/27 11:49:50;;;;;;;2.97;2.30;;;24.00;82.70;;;;;;5092366;28;20930;-83
2023/05/27 11:52:17;;;;;;;2.30;1.93;;;24.00;82.70;;;;;;5092992;28;20450;-83
2023/05/27 11:54:44;;;;;;;4.20;2.50;;;24.20;82.90;;;;;;5093290;28;20441;-83
2023/05/27 11:57:12;;;;;;;1.97;1.77;;;24.20;82.80;;;;;;5093093;28;20483;-84
2023/05/27 11:59:38;;;;;;;2.00;1.70;;;24.30;82.90;;;;;;5092936;28;20439;-84
2023/05/27 12:02:06;;;;;;;1.93;1.50;;;24.30;83.00;;;;;;5093052;28;20483;-83
2023/05/27 12:04:33;;;;;;;2.73;1.50;;;24.10;82.50;;;;;;5093126;28;20848;-83
2023/05/27 12:07:02;;;;;;;3.03;2.00;;;24.10;82.40;;;;;;5093032;28;20444;-83
2023/05/27 12:09:29;;;;;;;3.60;2.27;;;24.10;82.70;;;;;;5092928;28;20462;-83
2023/05/27 12:11:56;;;;;;;2.17;1.80;;;24.30;83.20;;;;;;5092721;28;20478;-85
2023/05/27 12:14:23;;;;;;;2.30;1.80;;;24.20;83.00;;;;;;5093200;28;20442;-84
2023/05/27 12:16:50;;;;;;;2.90;2.07;;;24.20;82.80;;;;;;5093180;28;20457;-84
2023/05/27 12:19:16;;;;;;;1.97;1.77;;;24.20;82.80;;;;;;5092870;28;20445;-84
2023/05/27 12:21:43;;;;;;;1.73;1.63;;;24.20;82.80;;;;;;5092741;28;20451;-85
2023/05/27 12:24:11;;;;;;;2.80;1.67;;;24.20;83.00;;;;;;5092953;28;20440;-84
2023/05/27 12:26:40;;;;;;;2.10;1.63;;;24.20;83.10;;;;;;5092856;28;20441;-84
2023/05/27 12:29:07;;;;;;;2.13;1.93;;;24.20;82.60;;;;;;5092882;28;20463;-85
2023/05/27 12:31:34;;;;;;;2.10;1.57;;;24.20;83.20;;;;;;5092766;28;20438;-84
2023/05/27 12:34:01;;;;;;;2.20;2.00;;;24.20;83.10;;;;;;5092753;28;20429;-85
2023/05/27 12:36:28;;;;;;;3.23;1.40;;;24.20;83.20;;;;;;5092751;28;20435;-83
2023/05/27 12:38:54;;;;;;;2.10;1.50;;;24.20;82.90;;;;;;5092566;28;20457;-84
2023/05/27 12:41:23;;;;;;;1.77;1.60;;;24.20;83.20;;;;;;5092719;28;20446;-84
2023/05/27 12:43:49;;;;;;;2.20;1.80;;;24.40;83.30;;;;;;5092545;28;20575;-84
2023/05/27 12:46:16;;;;;;;3.10;1.80;;;24.30;83.70;;;;;;5092819;28;20526;-84
2023/05/27 12:48:43;;;;;;;2.73;1.80;;;24.30;83.30;;;;;;5092776;28;20448;-84